sensor_id;sensor_type;location;lat;lon;timestamp;temperature;humidity
314;DHT22;143;51.634;7.112;2023-11-19T00:00:06;10.90;1.00
314;DHT22;143;51.634;7.112;2023-11-19T00:02:36;10.90;1.00
314;DHT22;143;51.634;7.112;2023-11-19T00:05:02;11.20;1.00
314;DHT22;143;51.634;7.112;2023-11-19T00:07:27;11.00;1.00
314;DHT22;143;51.634;7.112;2023-11-19T00:09:53;11.00;1.00
314;DHT22;143;51.634;7.112;2023-11-19T00:12:20;11.00;1.00
314;DHT22;143;51.634;7.112;2023-11-19T00:14:46;11.10;1.00
314;DHT22;143;51.634;7.112;2023-11-19T00:17:11;11.10;1.00
314;DHT22;143;51.634;7.112;2023-11-19T00:19:37;11.10;1.00
314;DHT22;143;51.634;7.112;2023-11-19T00:22:02;11.20;1.00
314;DHT22;143;51.634;7.112;2023-11-19T00:24:29;11.20;1.00
314;DHT22;143;51.634;7.112;2023-11-19T00:26:56;11.20;1.00
314;DHT22;143;51.634;7.112;2023-11-19T00:29:22;11.20;1.00
314;DHT22;143;51.634;7.112;2023-11-19T00:31:47;11.40;1.00
314;DHT22;143;51.634;7.112;2023-11-19T00:34:13;11.40;1.00
314;DHT22;143;51.634;7.112;2023-11-19T00:36:39;11.40;1.00
314;DHT22;143;51.634;7.112;2023-11-19T00:39:04;11.30;1.00
314;DHT22;143;51.634;7.112;2023-11-19T00:41:31;11.30;1.00
314;DHT22;143;51.634;7.112;2023-11-19T00:43:56;11.40;1.00
314;DHT22;143;51.634;7.112;2023-11-19T00:46:22;11.40;1.00
314;DHT22;143;51.634;7.112;2023-11-19T00:48:47;11.40;1.00
314;DHT22;143;51.634;7.112;2023-11-19T00:51:13;11.40;1.00
314;DHT22;143;51.634;7.112;2023-11-19T00:53:39;11.50;1.00
314;DHT22;143;51.634;7.112;2023-11-19T00:56:05;11.50;1.00
314;DHT22;143;51.634;7.112;2023-11-19T00:58:31;11.50;1.00
314;DHT22;143;51.634;7.112;2023-11-19T01:00:57;11.50;1.00
314;DHT22;143;51.634;7.112;2023-11-19T01:03:23;11.50;1.00
314;DHT22;143;51.634;7.112;2023-11-19T01:05:48;11.70;1.00
314;DHT22;143;51.634;7.112;2023-11-19T01:08:14;11.60;1.00
314;DHT22;143;51.634;7.112;2023-11-19T01:10:41;11.60;1.00
314;DHT22;143;51.634;7.112;2023-11-19T01:13:06;11.70;1.00
314;DHT22;143;51.634;7.112;2023-11-19T01:15:32;11.70;1.00
314;DHT22;143;51.634;7.112;2023-11-19T01:17:58;11.70;1.00
314;DHT22;143;51.634;7.112;2023-11-19T01:20:24;12.00;1.00
314;DHT22;143;51.634;7.112;2023-11-19T01:22:50;11.80;1.00
314;DHT22;143;51.634;7.112;2023-11-19T01:25:16;11.90;1.00
314;DHT22;143;51.634;7.112;2023-11-19T01:27:42;11.80;1.00
314;DHT22;143;51.634;7.112;2023-11-19T01:30:08;11.90;1.00
314;DHT22;143;51.634;7.112;2023-11-19T01:32:38;11.90;1.00
314;DHT22;143;51.634;7.112;2023-11-19T01:35:04;12.00;1.00
314;DHT22;143;51.634;7.112;2023-11-19T01:37:30;12.00;1.00
314;DHT22;143;51.634;7.112;2023-11-19T01:39:57;12.00;1.00
314;DHT22;143;51.634;7.112;2023-11-19T01:42:23;12.10;1.00
314;DHT22;143;51.634;7.112;2023-11-19T01:44:58;12.10;1.00
314;DHT22;143;51.634;7.112;2023-11-19T01:47:28;12.20;1.00
314;DHT22;143;51.634;7.112;2023-11-19T01:49:54;12.20;1.00
314;DHT22;143;51.634;7.112;2023-11-19T01:52:21;12.30;1.00
314;DHT22;143;51.634;7.112;2023-11-19T01:54:47;12.30;1.00
314;DHT22;143;51.634;7.112;2023-11-19T01:57:14;12.30;1.00
314;DHT22;143;51.634;7.112;2023-11-19T01:59:40;12.40;1.00
314;DHT22;143;51.634;7.112;2023-11-19T02:02:07;12.40;1.00
314;DHT22;143;51.634;7.112;2023-11-19T02:04:33;12.40;3.30
314;DHT22;143;51.634;7.112;2023-11-19T02:06:59;12.40;1.00
314;DHT22;143;51.634;7.112;2023-11-19T02:09:25;12.40;1.00
314;DHT22;143;51.634;7.112;2023-11-19T02:11:52;12.40;1.00
314;DHT22;143;51.634;7.112;2023-11-19T02:14:19;12.50;1.00
314;DHT22;143;51.634;7.112;2023-11-19T02:16:47;12.50;1.00
314;DHT22;143;51.634;7.112;2023-11-19T02:19:12;12.50;1.00
314;DHT22;143;51.634;7.112;2023-11-19T02:21:38;12.50;1.00
314;DHT22;143;51.634;7.112;2023-11-19T02:24:06;12.60;3.30
314;DHT22;143;51.634;7.112;2023-11-19T02:26:58;12.60;1.00
314;DHT22;143;51.634;7.112;2023-11-19T02:29:25;12.60;1.00
314;DHT22;143;51.634;7.112;2023-11-19T02:31:51;12.60;1.00
314;DHT22;143;51.634;7.112;2023-11-19T02:34:16;12.60;1.00
314;DHT22;143;51.634;7.112;2023-11-19T02:36:42;12.60;1.00
314;DHT22;143;51.634;7.112;2023-11-19T02:39:08;12.60;1.00
314;DHT22;143;51.634;7.112;2023-11-19T02:41:36;12.70;1.00
314;DHT22;143;51.634;7.112;2023-11-19T02:44:05;12.70;1.00
314;DHT22;143;51.634;7.112;2023-11-19T02:46:31;12.70;1.00
314;DHT22;143;51.634;7.112;2023-11-19T02:48:57;12.70;1.00
314;DHT22;143;51.634;7.112;2023-11-19T02:51:23;12.70;1.00
314;DHT22;143;51.634;7.112;2023-11-19T02:53:48;12.70;1.00
314;DHT22;143;51.634;7.112;2023-11-19T02:56:14;12.70;1.00
314;DHT22;143;51.634;7.112;2023-11-19T02:58:51;12.80;1.00
314;DHT22;143;51.634;7.112;2023-11-19T03:01:23;12.80;1.00
314;DHT22;143;51.634;7.112;2023-11-19T03:03:55;12.80;1.00
314;DHT22;143;51.634;7.112;2023-11-19T03:06:22;12.80;1.00
314;DHT22;143;51.634;7.112;2023-11-19T03:08:48;12.80;1.00
314;DHT22;143;51.634;7.112;2023-11-19T03:11:13;12.80;1.00
314;DHT22;143;51.634;7.112;2023-11-19T03:13:39;12.80;1.00
314;DHT22;143;51.634;7.112;2023-11-19T03:16:05;12.80;1.00
314;DHT22;143;51.634;7.112;2023-11-19T03:18:31;12.80;1.00
314;DHT22;143;51.634;7.112;2023-11-19T03:20:56;12.80;1.00
314;DHT22;143;51.634;7.112;2023-11-19T03:23:24;12.80;1.00
314;DHT22;143;51.634;7.112;2023-11-19T03:25:49;12.90;1.00
314;DHT22;143;51.634;7.112;2023-11-19T03:28:15;12.90;1.00
314;DHT22;143;51.634;7.112;2023-11-19T03:30:40;12.90;1.00
314;DHT22;143;51.634;7.112;2023-11-19T03:33:06;12.90;1.00
314;DHT22;143;51.634;7.112;2023-11-19T03:35:32;13.00;1.00
314;DHT22;143;51.634;7.112;2023-11-19T03:37:58;13.00;1.00
314;DHT22;143;51.634;7.112;2023-11-19T03:40:24;13.00;1.00
314;DHT22;143;51.634;7.112;2023-11-19T03:42:50;13.00;1.00
314;DHT22;143;51.634;7.112;2023-11-19T03:45:16;13.00;1.00
314;DHT22;143;51.634;7.112;2023-11-19T03:47:41;13.00;1.00
314;DHT22;143;51.634;7.112;2023-11-19T03:50:07;13.00;1.00
314;DHT22;143;51.634;7.112;2023-11-19T03:52:36;13.00;1.00
314;DHT22;143;51.634;7.112;2023-11-19T03:55:02;13.00;1.00
314;DHT22;143;51.634;7.112;2023-11-19T03:57:31;13.00;1.00
314;DHT22;143;51.634;7.112;2023-11-19T03:59:56;13.00;1.00
314;DHT22;143;51.634;7.112;2023-11-19T04:02:23;13.00;1.00
314;DHT22;143;51.634;7.112;2023-11-19T04:04:53;13.00;1.00
314;DHT22;143;51.634;7.112;2023-11-19T04:07:18;13.00;1.00
314;DHT22;143;51.634;7.112;2023-11-19T04:09:44;13.00;1.00
314;DHT22;143;51.634;7.112;2023-11-19T04:12:12;13.00;1.00
314;DHT22;143;51.634;7.112;2023-11-19T04:14:37;12.90;1.00
314;DHT22;143;51.634;7.112;2023-11-19T04:17:03;12.90;1.00
314;DHT22;143;51.634;7.112;2023-11-19T04:19:28;12.90;1.00
314;DHT22;143;51.634;7.112;2023-11-19T04:21:54;12.90;1.00
314;DHT22;143;51.634;7.112;2023-11-19T04:24:19;12.90;1.00
314;DHT22;143;51.634;7.112;2023-11-19T04:26:45;12.90;1.00
314;DHT22;143;51.634;7.112;2023-11-19T04:29:16;12.90;1.00
314;DHT22;143;51.634;7.112;2023-11-19T04:31:43;12.80;1.00
314;DHT22;143;51.634;7.112;2023-11-19T04:34:08;12.90;1.00
314;DHT22;143;51.634;7.112;2023-11-19T04:36:34;12.90;1.00
314;DHT22;143;51.634;7.112;2023-11-19T04:39:00;12.90;1.00
314;DHT22;143;51.634;7.112;2023-11-19T04:41:26;12.80;1.00
314;DHT22;143;51.634;7.112;2023-11-19T04:43:54;12.80;1.00
314;DHT22;143;51.634;7.112;2023-11-19T04:46:20;12.80;1.00
314;DHT22;143;51.634;7.112;2023-11-19T04:48:46;12.80;1.00
314;DHT22;143;51.634;7.112;2023-11-19T04:51:12;12.70;1.00
314;DHT22;143;51.634;7.112;2023-11-19T04:53:37;12.70;1.00
314;DHT22;143;51.634;7.112;2023-11-19T04:56:12;12.60;1.00
314;DHT22;143;51.634;7.112;2023-11-19T04:58:38;12.60;1.00
314;DHT22;143;51.634;7.112;2023-11-19T05:01:04;12.60;1.00
314;DHT22;143;51.634;7.112;2023-11-19T05:03:33;12.50;1.00
314;DHT22;143;51.634;7.112;2023-11-19T05:05:58;12.50;1.00
314;DHT22;143;51.634;7.112;2023-11-19T05:08:24;12.50;1.00
314;DHT22;143;51.634;7.112;2023-11-19T05:10:50;12.40;1.00
314;DHT22;143;51.634;7.112;2023-11-19T05:13:15;12.40;1.00
314;DHT22;143;51.634;7.112;2023-11-19T05:15:42;12.40;1.00
314;DHT22;143;51.634;7.112;2023-11-19T05:18:07;12.40;1.00
314;DHT22;143;51.634;7.112;2023-11-19T05:20:34;12.40;1.00
314;DHT22;143;51.634;7.112;2023-11-19T05:22:59;12.40;1.00
314;DHT22;143;51.634;7.112;2023-11-19T05:25:26;12.40;1.00
314;DHT22;143;51.634;7.112;2023-11-19T05:27:52;12.40;1.00
314;DHT22;143;51.634;7.112;2023-11-19T05:30:17;12.40;1.00
314;DHT22;143;51.634;7.112;2023-11-19T05:32:43;12.40;1.00
314;DHT22;143;51.634;7.112;2023-11-19T05:35:08;12.40;1.00
314;DHT22;143;51.634;7.112;2023-11-19T05:37:34;12.40;1.00
314;DHT22;143;51.634;7.112;2023-11-19T05:40:00;12.40;1.00
314;DHT22;143;51.634;7.112;2023-11-19T05:42:28;12.50;1.00
314;DHT22;143;51.634;7.112;2023-11-19T05:44:54;12.50;1.00
314;DHT22;143;51.634;7.112;2023-11-19T05:47:19;12.50;1.00
314;DHT22;143;51.634;7.112;2023-11-19T05:49:45;12.50;1.00
314;DHT22;143;51.634;7.112;2023-11-19T05:52:10;12.50;1.00
314;DHT22;143;51.634;7.112;2023-11-19T05:54:37;12.50;1.00
314;DHT22;143;51.634;7.112;2023-11-19T05:57:04;12.50;1.00
314;DHT22;143;51.634;7.112;2023-11-19T05:59:30;12.50;1.00
314;DHT22;143;51.634;7.112;2023-11-19T06:01:58;12.40;1.00
314;DHT22;143;51.634;7.112;2023-11-19T06:04:23;12.40;1.00
314;DHT22;143;51.634;7.112;2023-11-19T06:06:49;12.30;1.00
314;DHT22;143;51.634;7.112;2023-11-19T06:09:14;12.30;1.00
314;DHT22;143;51.634;7.112;2023-11-19T06:11:40;12.30;1.00
314;DHT22;143;51.634;7.112;2023-11-19T06:14:06;12.30;1.00
314;DHT22;143;51.634;7.112;2023-11-19T06:16:32;12.30;1.00
314;DHT22;143;51.634;7.112;2023-11-19T06:18:58;12.30;1.00
314;DHT22;143;51.634;7.112;2023-11-19T06:21:23;12.30;1.00
314;DHT22;143;51.634;7.112;2023-11-19T06:23:50;12.30;1.00
314;DHT22;143;51.634;7.112;2023-11-19T06:26:17;12.30;1.00
314;DHT22;143;51.634;7.112;2023-11-19T06:28:43;12.30;1.00
314;DHT22;143;51.634;7.112;2023-11-19T06:31:09;12.30;1.00
314;DHT22;143;51.634;7.112;2023-11-19T06:33:35;12.30;1.00
314;DHT22;143;51.634;7.112;2023-11-19T06:36:00;12.30;1.00
314;DHT22;143;51.634;7.112;2023-11-19T06:38:26;12.30;1.00
314;DHT22;143;51.634;7.112;2023-11-19T06:40:51;12.30;1.00
314;DHT22;143;51.634;7.112;2023-11-19T06:43:17;12.20;1.00
314;DHT22;143;51.634;7.112;2023-11-19T06:45:43;12.20;1.00
314;DHT22;143;51.634;7.112;2023-11-19T06:48:08;12.20;1.00
314;DHT22;143;51.634;7.112;2023-11-19T06:50:34;12.20;1.00
314;DHT22;143;51.634;7.112;2023-11-19T06:53:00;12.20;1.00
314;DHT22;143;51.634;7.112;2023-11-19T06:55:26;12.20;1.00
314;DHT22;143;51.634;7.112;2023-11-19T06:57:52;12.20;1.00
314;DHT22;143;51.634;7.112;2023-11-19T07:00:17;12.20;1.00
314;DHT22;143;51.634;7.112;2023-11-19T07:02:43;12.20;1.00
314;DHT22;143;51.634;7.112;2023-11-19T07:05:09;12.20;1.00
314;DHT22;143;51.634;7.112;2023-11-19T07:07:35;12.20;1.00
314;DHT22;143;51.634;7.112;2023-11-19T07:10:01;12.20;1.00
314;DHT22;143;51.634;7.112;2023-11-19T07:12:27;12.20;1.00
314;DHT22;143;51.634;7.112;2023-11-19T07:14:53;12.30;1.00
314;DHT22;143;51.634;7.112;2023-11-19T07:17:20;12.30;1.00
314;DHT22;143;51.634;7.112;2023-11-19T07:19:47;12.30;1.00
314;DHT22;143;51.634;7.112;2023-11-19T07:22:14;12.20;1.00
314;DHT22;143;51.634;7.112;2023-11-19T07:24:40;12.20;1.00
314;DHT22;143;51.634;7.112;2023-11-19T07:27:07;12.20;1.00
314;DHT22;143;51.634;7.112;2023-11-19T07:29:34;12.20;1.00
314;DHT22;143;51.634;7.112;2023-11-19T07:32:00;12.20;1.00
314;DHT22;143;51.634;7.112;2023-11-19T07:34:27;12.20;1.00
314;DHT22;143;51.634;7.112;2023-11-19T07:36:53;12.20;1.00
314;DHT22;143;51.634;7.112;2023-11-19T07:39:19;12.20;1.00
314;DHT22;143;51.634;7.112;2023-11-19T07:41:46;12.20;1.00
314;DHT22;143;51.634;7.112;2023-11-19T07:44:11;12.10;1.00
314;DHT22;143;51.634;7.112;2023-11-19T07:46:37;12.10;1.00
314;DHT22;143;51.634;7.112;2023-11-19T07:49:02;12.00;1.00
314;DHT22;143;51.634;7.112;2023-11-19T07:51:28;12.10;1.00
314;DHT22;143;51.634;7.112;2023-11-19T07:53:53;12.00;1.00
314;DHT22;143;51.634;7.112;2023-11-19T07:56:19;12.00;1.00
314;DHT22;143;51.634;7.112;2023-11-19T07:58:45;12.00;1.00
314;DHT22;143;51.634;7.112;2023-11-19T08:01:10;12.00;1.00
314;DHT22;143;51.634;7.112;2023-11-19T08:03:36;12.00;1.00
314;DHT22;143;51.634;7.112;2023-11-19T08:06:02;12.10;1.00
314;DHT22;143;51.634;7.112;2023-11-19T08:08:27;12.10;1.00
314;DHT22;143;51.634;7.112;2023-11-19T08:10:55;12.10;1.00
314;DHT22;143;51.634;7.112;2023-11-19T08:13:23;12.10;1.00
314;DHT22;143;51.634;7.112;2023-11-19T08:15:48;12.10;1.00
314;DHT22;143;51.634;7.112;2023-11-19T08:18:14;12.10;1.00
314;DHT22;143;51.634;7.112;2023-11-19T08:20:40;12.10;1.00
314;DHT22;143;51.634;7.112;2023-11-19T08:23:06;12.10;1.00
314;DHT22;143;51.634;7.112;2023-11-19T08:25:33;12.20;1.00
314;DHT22;143;51.634;7.112;2023-11-19T08:27:59;12.20;1.00
314;DHT22;143;51.634;7.112;2023-11-19T08:30:25;12.30;1.00
314;DHT22;143;51.634;7.112;2023-11-19T08:32:50;12.30;1.00
314;DHT22;143;51.634;7.112;2023-11-19T08:35:16;12.30;1.00
314;DHT22;143;51.634;7.112;2023-11-19T08:37:42;12.30;1.00
314;DHT22;143;51.634;7.112;2023-11-19T08:40:08;12.30;1.00
314;DHT22;143;51.634;7.112;2023-11-19T08:42:33;12.30;1.00
314;DHT22;143;51.634;7.112;2023-11-19T08:44:59;12.30;1.00
314;DHT22;143;51.634;7.112;2023-11-19T08:47:24;12.30;1.00
314;DHT22;143;51.634;7.112;2023-11-19T08:49:53;12.40;1.00
314;DHT22;143;51.634;7.112;2023-11-19T08:52:20;12.40;1.00
314;DHT22;143;51.634;7.112;2023-11-19T08:54:45;12.50;1.00
314;DHT22;143;51.634;7.112;2023-11-19T08:57:11;12.50;1.00
314;DHT22;143;51.634;7.112;2023-11-19T08:59:37;12.60;1.00
314;DHT22;143;51.634;7.112;2023-11-19T09:02:05;12.60;1.00
314;DHT22;143;51.634;7.112;2023-11-19T09:04:32;12.70;1.00
314;DHT22;143;51.634;7.112;2023-11-19T09:06:58;12.70;1.00
314;DHT22;143;51.634;7.112;2023-11-19T09:09:23;12.80;1.00
314;DHT22;143;51.634;7.112;2023-11-19T09:11:49;12.70;1.00
314;DHT22;143;51.634;7.112;2023-11-19T09:14:15;12.70;1.00
314;DHT22;143;51.634;7.112;2023-11-19T09:16:40;12.70;1.00
314;DHT22;143;51.634;7.112;2023-11-19T09:19:06;12.70;1.00
314;DHT22;143;51.634;7.112;2023-11-19T09:21:32;12.70;1.00
314;DHT22;143;51.634;7.112;2023-11-19T09:23:59;12.60;1.00
314;DHT22;143;51.634;7.112;2023-11-19T09:26:25;12.50;1.00
314;DHT22;143;51.634;7.112;2023-11-19T09:28:51;12.50;1.00
314;DHT22;143;51.634;7.112;2023-11-19T09:31:17;12.50;1.00
314;DHT22;143;51.634;7.112;2023-11-19T09:33:44;12.50;1.00
314;DHT22;143;51.634;7.112;2023-11-19T09:36:11;12.50;1.00
314;DHT22;143;51.634;7.112;2023-11-19T09:38:41;12.50;1.00
314;DHT22;143;51.634;7.112;2023-11-19T09:41:07;12.50;1.00
314;DHT22;143;51.634;7.112;2023-11-19T09:43:38;12.50;1.00
314;DHT22;143;51.634;7.112;2023-11-19T09:46:05;12.50;1.00
314;DHT22;143;51.634;7.112;2023-11-19T09:48:35;12.50;1.00
314;DHT22;143;51.634;7.112;2023-11-19T09:51:02;12.50;1.00
314;DHT22;143;51.634;7.112;2023-11-19T09:53:29;12.70;1.00
314;DHT22;143;51.634;7.112;2023-11-19T09:55:55;12.70;1.00
314;DHT22;143;51.634;7.112;2023-11-19T09:58:21;12.80;1.00
314;DHT22;143;51.634;7.112;2023-11-19T10:00:48;12.80;1.00
314;DHT22;143;51.634;7.112;2023-11-19T10:03:14;12.80;1.00
314;DHT22;143;51.634;7.112;2023-11-19T10:05:39;12.70;1.00
314;DHT22;143;51.634;7.112;2023-11-19T10:08:06;12.70;1.00
314;DHT22;143;51.634;7.112;2023-11-19T10:10:33;12.70;1.00
314;DHT22;143;51.634;7.112;2023-11-19T10:12:59;12.70;1.00
314;DHT22;143;51.634;7.112;2023-11-19T10:15:26;12.70;1.00
314;DHT22;143;51.634;7.112;2023-11-19T10:17:54;12.70;1.00
314;DHT22;143;51.634;7.112;2023-11-19T10:20:20;12.70;1.00
314;DHT22;143;51.634;7.112;2023-11-19T10:22:46;12.70;1.00
314;DHT22;143;51.634;7.112;2023-11-19T10:25:28;12.70;1.00
314;DHT22;143;51.634;7.112;2023-11-19T10:27:54;12.70;1.00
314;DHT22;143;51.634;7.112;2023-11-19T10:30:25;12.70;1.00
314;DHT22;143;51.634;7.112;2023-11-19T10:33:04;12.70;1.00
314;DHT22;143;51.634;7.112;2023-11-19T10:35:34;12.70;1.00
314;DHT22;143;51.634;7.112;2023-11-19T10:38:01;12.60;1.00
314;DHT22;143;51.634;7.112;2023-11-19T10:40:39;12.70;1.00
314;DHT22;143;51.634;7.112;2023-11-19T10:43:06;12.70;1.00
314;DHT22;143;51.634;7.112;2023-11-19T10:45:33;12.70;1.00
314;DHT22;143;51.634;7.112;2023-11-19T10:47:59;12.70;1.00
314;DHT22;143;51.634;7.112;2023-11-19T10:50:26;12.80;1.00
314;DHT22;143;51.634;7.112;2023-11-19T10:52:56;12.80;1.00
314;DHT22;143;51.634;7.112;2023-11-19T10:55:28;12.80;1.00
314;DHT22;143;51.634;7.112;2023-11-19T10:58:05;12.80;1.00
314;DHT22;143;51.634;7.112;2023-11-19T11:00:44;12.80;1.00
314;DHT22;143;51.634;7.112;2023-11-19T11:03:20;12.90;1.00
314;DHT22;143;51.634;7.112;2023-11-19T11:05:49;12.90;1.00
314;DHT22;143;51.634;7.112;2023-11-19T11:08:15;12.90;1.00
314;DHT22;143;51.634;7.112;2023-11-19T11:10:55;12.90;1.00
314;DHT22;143;51.634;7.112;2023-11-19T11:13:25;12.90;1.00
314;DHT22;143;51.634;7.112;2023-11-19T11:15:53;12.90;1.00
314;DHT22;143;51.634;7.112;2023-11-19T11:18:21;12.90;1.00
314;DHT22;143;51.634;7.112;2023-11-19T11:20:47;12.90;1.00
314;DHT22;143;51.634;7.112;2023-11-19T11:31:29;12.90;1.00
314;DHT22;143;51.634;7.112;2023-11-19T11:34:14;12.90;1.00
314;DHT22;143;51.634;7.112;2023-11-19T11:39:22;13.00;1.00
314;DHT22;143;51.634;7.112;2023-11-19T11:50:12;13.00;99.90
314;DHT22;143;51.634;7.112;2023-11-19T11:57:50;13.30;99.90
314;DHT22;143;51.634;7.112;2023-11-19T12:00:22;13.30;99.90
314;DHT22;143;51.634;7.112;2023-11-19T12:02:49;13.70;99.90
314;DHT22;143;51.634;7.112;2023-11-19T12:05:15;14.20;99.90
314;DHT22;143;51.634;7.112;2023-11-19T12:07:41;14.80;99.90
314;DHT22;143;51.634;7.112;2023-11-19T12:10:08;14.90;99.90
314;DHT22;143;51.634;7.112;2023-11-19T12:12:34;14.80;99.90
314;DHT22;143;51.634;7.112;2023-11-19T12:15:08;14.70;99.90
314;DHT22;143;51.634;7.112;2023-11-19T12:17:40;14.50;99.90
314;DHT22;143;51.634;7.112;2023-11-19T12:20:06;14.30;99.90
314;DHT22;143;51.634;7.112;2023-11-19T12:22:40;14.10;99.90
314;DHT22;143;51.634;7.112;2023-11-19T12:25:08;14.00;99.90
314;DHT22;143;51.634;7.112;2023-11-19T12:27:42;13.80;99.90
314;DHT22;143;51.634;7.112;2023-11-19T12:30:08;13.80;99.90
314;DHT22;143;51.634;7.112;2023-11-19T12:32:46;13.70;99.90
314;DHT22;143;51.634;7.112;2023-11-19T12:35:12;13.70;99.90
314;DHT22;143;51.634;7.112;2023-11-19T12:37:45;13.70;99.90
314;DHT22;143;51.634;7.112;2023-11-19T12:40:24;13.60;99.90
314;DHT22;143;51.634;7.112;2023-11-19T12:42:52;13.60;99.90
314;DHT22;143;51.634;7.112;2023-11-19T12:45:18;13.60;99.90
314;DHT22;143;51.634;7.112;2023-11-19T12:47:46;13.50;99.90
314;DHT22;143;51.634;7.112;2023-11-19T12:50:18;13.50;99.90
314;DHT22;143;51.634;7.112;2023-11-19T12:52:58;13.50;99.90
314;DHT22;143;51.634;7.112;2023-11-19T12:55:30;13.50;99.90
314;DHT22;143;51.634;7.112;2023-11-19T12:57:55;13.40;99.90
314;DHT22;143;51.634;7.112;2023-11-19T13:00:22;13.20;99.90
314;DHT22;143;51.634;7.112;2023-11-19T13:02:51;13.10;99.90
314;DHT22;143;51.634;7.112;2023-11-19T13:05:33;13.00;99.90
314;DHT22;143;51.634;7.112;2023-11-19T13:08:09;12.80;1.00
314;DHT22;143;51.634;7.112;2023-11-19T13:10:55;12.60;1.00
314;DHT22;143;51.634;7.112;2023-11-19T13:13:20;12.40;1.00
314;DHT22;143;51.634;7.112;2023-11-19T13:15:46;12.30;1.00
314;DHT22;143;51.634;7.112;2023-11-19T13:18:12;12.30;1.00
314;DHT22;143;51.634;7.112;2023-11-19T13:20:38;12.30;1.00
314;DHT22;143;51.634;7.112;2023-11-19T13:23:04;12.30;1.00
314;DHT22;143;51.634;7.112;2023-11-19T13:25:31;12.30;1.00
314;DHT22;143;51.634;7.112;2023-11-19T13:27:57;12.30;1.00
314;DHT22;143;51.634;7.112;2023-11-19T13:30:23;12.40;1.00
314;DHT22;143;51.634;7.112;2023-11-19T13:32:49;12.40;1.00
314;DHT22;143;51.634;7.112;2023-11-19T13:35:16;12.50;1.00
314;DHT22;143;51.634;7.112;2023-11-19T13:37:42;12.50;1.00
314;DHT22;143;51.634;7.112;2023-11-19T13:40:08;12.50;1.00
314;DHT22;143;51.634;7.112;2023-11-19T13:42:36;12.60;1.00
314;DHT22;143;51.634;7.112;2023-11-19T13:45:03;12.60;1.00
314;DHT22;143;51.634;7.112;2023-11-19T13:47:28;12.60;1.00
314;DHT22;143;51.634;7.112;2023-11-19T13:49:54;12.60;1.00
314;DHT22;143;51.634;7.112;2023-11-19T13:52:19;12.60;1.00
314;DHT22;143;51.634;7.112;2023-11-19T13:54:45;12.60;1.00
314;DHT22;143;51.634;7.112;2023-11-19T13:57:10;12.60;1.00
314;DHT22;143;51.634;7.112;2023-11-19T13:59:39;12.60;1.00
314;DHT22;143;51.634;7.112;2023-11-19T14:02:05;12.60;1.00
314;DHT22;143;51.634;7.112;2023-11-19T14:04:33;12.70;1.00
314;DHT22;143;51.634;7.112;2023-11-19T14:06:58;12.70;1.00
314;DHT22;143;51.634;7.112;2023-11-19T14:09:24;12.70;1.00
314;DHT22;143;51.634;7.112;2023-11-19T14:11:49;12.80;1.00
314;DHT22;143;51.634;7.112;2023-11-19T14:14:16;12.90;1.00
314;DHT22;143;51.634;7.112;2023-11-19T14:16:42;12.90;1.00
314;DHT22;143;51.634;7.112;2023-11-19T14:19:07;12.90;1.00
314;DHT22;143;51.634;7.112;2023-11-19T14:21:33;12.90;1.00
314;DHT22;143;51.634;7.112;2023-11-19T14:23:58;12.90;1.00
314;DHT22;143;51.634;7.112;2023-11-19T14:26:24;12.90;1.00
314;DHT22;143;51.634;7.112;2023-11-19T14:28:50;12.80;1.00
314;DHT22;143;51.634;7.112;2023-11-19T14:31:15;12.90;1.00
314;DHT22;143;51.634;7.112;2023-11-19T14:33:41;12.80;1.00
314;DHT22;143;51.634;7.112;2023-11-19T14:36:06;12.80;1.00
314;DHT22;143;51.634;7.112;2023-11-19T14:38:32;12.80;1.00
314;DHT22;143;51.634;7.112;2023-11-19T14:40:58;12.70;1.00
314;DHT22;143;51.634;7.112;2023-11-19T14:43:25;12.50;1.00
314;DHT22;143;51.634;7.112;2023-11-19T14:45:50;12.40;1.00
314;DHT22;143;51.634;7.112;2023-11-19T14:48:16;12.40;1.00
314;DHT22;143;51.634;7.112;2023-11-19T14:50:43;12.30;1.00
314;DHT22;143;51.634;7.112;2023-11-19T14:53:10;12.20;1.00
314;DHT22;143;51.634;7.112;2023-11-19T14:55:36;12.20;1.00
314;DHT22;143;51.634;7.112;2023-11-19T14:58:01;12.10;1.00
314;DHT22;143;51.634;7.112;2023-11-19T15:00:27;12.10;1.00
314;DHT22;143;51.634;7.112;2023-11-19T15:02:52;12.10;1.00
314;DHT22;143;51.634;7.112;2023-11-19T15:05:18;12.00;1.00
314;DHT22;143;51.634;7.112;2023-11-19T15:07:45;12.00;1.00
314;DHT22;143;51.634;7.112;2023-11-19T15:10:10;12.00;1.00
314;DHT22;143;51.634;7.112;2023-11-19T15:12:38;12.00;1.00
314;DHT22;143;51.634;7.112;2023-11-19T15:15:07;11.90;1.00
314;DHT22;143;51.634;7.112;2023-11-19T15:17:32;12.00;1.00
314;DHT22;143;51.634;7.112;2023-11-19T15:19:58;11.90;1.00
314;DHT22;143;51.634;7.112;2023-11-19T15:22:24;11.90;1.00
314;DHT22;143;51.634;7.112;2023-11-19T15:24:49;11.90;1.00
314;DHT22;143;51.634;7.112;2023-11-19T15:27:15;11.90;1.00
314;DHT22;143;51.634;7.112;2023-11-19T15:29:40;11.90;1.00
314;DHT22;143;51.634;7.112;2023-11-19T15:32:06;11.90;1.00
314;DHT22;143;51.634;7.112;2023-11-19T15:34:34;11.90;1.00
314;DHT22;143;51.634;7.112;2023-11-19T15:37:03;11.90;1.00
314;DHT22;143;51.634;7.112;2023-11-19T15:39:29;11.90;1.00
314;DHT22;143;51.634;7.112;2023-11-19T15:41:55;11.90;1.00
314;DHT22;143;51.634;7.112;2023-11-19T15:44:21;11.90;1.00
314;DHT22;143;51.634;7.112;2023-11-19T15:46:46;11.90;1.00
314;DHT22;143;51.634;7.112;2023-11-19T15:49:12;11.90;1.00
314;DHT22;143;51.634;7.112;2023-11-19T15:51:37;11.80;1.00
314;DHT22;143;51.634;7.112;2023-11-19T15:54:03;11.80;1.00
314;DHT22;143;51.634;7.112;2023-11-19T15:56:30;11.80;1.00
314;DHT22;143;51.634;7.112;2023-11-19T15:58:56;11.80;1.00
314;DHT22;143;51.634;7.112;2023-11-19T16:01:22;11.80;1.00
314;DHT22;143;51.634;7.112;2023-11-19T16:03:47;11.80;1.00
314;DHT22;143;51.634;7.112;2023-11-19T16:06:13;11.70;1.00
314;DHT22;143;51.634;7.112;2023-11-19T16:08:38;11.70;1.00
314;DHT22;143;51.634;7.112;2023-11-19T16:11:04;11.70;1.00
314;DHT22;143;51.634;7.112;2023-11-19T16:13:30;11.60;1.00
314;DHT22;143;51.634;7.112;2023-11-19T16:15:56;11.70;1.00
314;DHT22;143;51.634;7.112;2023-11-19T16:18:21;11.70;1.00
314;DHT22;143;51.634;7.112;2023-11-19T16:20:47;11.70;1.00
314;DHT22;143;51.634;7.112;2023-11-19T16:23:12;11.70;1.00
314;DHT22;143;51.634;7.112;2023-11-19T16:25:38;11.70;1.00
314;DHT22;143;51.634;7.112;2023-11-19T16:28:04;11.70;1.00
314;DHT22;143;51.634;7.112;2023-11-19T16:30:33;11.70;1.00
314;DHT22;143;51.634;7.112;2023-11-19T16:32:59;11.70;1.00
314;DHT22;143;51.634;7.112;2023-11-19T16:35:25;11.70;1.00
314;DHT22;143;51.634;7.112;2023-11-19T16:37:51;11.60;1.00
314;DHT22;143;51.634;7.112;2023-11-19T16:40:17;11.60;1.00
314;DHT22;143;51.634;7.112;2023-11-19T16:42:43;11.50;1.00
314;DHT22;143;51.634;7.112;2023-11-19T16:45:11;11.50;1.00
314;DHT22;143;51.634;7.112;2023-11-19T16:47:37;11.40;1.00
314;DHT22;143;51.634;7.112;2023-11-19T16:50:03;11.40;1.00
314;DHT22;143;51.634;7.112;2023-11-19T16:52:29;11.40;1.00
314;DHT22;143;51.634;7.112;2023-11-19T16:54:56;11.40;1.00
314;DHT22;143;51.634;7.112;2023-11-19T16:57:22;11.30;1.00
314;DHT22;143;51.634;7.112;2023-11-19T16:59:48;11.30;1.00
314;DHT22;143;51.634;7.112;2023-11-19T17:02:18;11.30;1.00
314;DHT22;143;51.634;7.112;2023-11-19T17:04:43;11.30;1.00
314;DHT22;143;51.634;7.112;2023-11-19T17:07:09;11.30;1.00
314;DHT22;143;51.634;7.112;2023-11-19T17:09:34;11.30;1.00
314;DHT22;143;51.634;7.112;2023-11-19T17:12:00;11.40;1.00